Butia, Brazil
Current Conditions -  °F | °C
As of 4:00 PM on Thursday 23 Oct 2014 (Local Time) from SBPA Reporting Station
Clear Clear  
Wind Chill: 82°   Ceiling: Unl
Heat Index: 82°   Visibility: 6mi
Dew Point: 59°   Wind: 7mph
Humidity: 45%   Direction: 250°WSW
Pressure: 29.97"   Gusts: NA
Location:  30.12°S, 51.96°W
Report Text: SBPA 231800Z 25006KT CAVOK 28/15 Q1015
Loading
Personal Weather Stations






























Interactive Weather Map
Tropical Storm Tracking
New forecast layout! Learn more

10-Day Weather Forecast

Advertisements
Track Severe Weather on mobile